createdAt,value
2018-09-01T00:00:08.069Z,28.97
2018-09-01T00:02:35.745Z,30.90
2018-09-01T00:05:03.660Z,29.00
2018-09-01T00:07:31.391Z,30.30
2018-09-01T00:09:59.011Z,30.20
2018-09-01T00:12:26.775Z,29.50
2018-09-01T00:14:54.543Z,30.73
2018-09-01T00:17:27.392Z,30.33
2018-09-01T00:19:55.715Z,28.10
2018-09-01T00:22:23.462Z,30.20
2018-09-01T00:24:52.204Z,28.83
2018-09-01T00:27:20.312Z,27.47
2018-09-01T00:29:49.296Z,30.37
2018-09-01T00:32:17.396Z,27.30
2018-09-01T00:34:45.217Z,27.43
2018-09-01T00:37:12.906Z,24.17
2018-09-01T00:39:43.945Z,26.90
2018-09-01T00:42:12.575Z,25.00
2018-09-01T00:44:40.256Z,27.07
2018-09-01T00:47:08.039Z,25.93
2018-09-01T00:49:35.692Z,25.83
2018-09-01T00:52:03.507Z,24.80
2018-09-01T00:54:31.067Z,26.20
2018-09-01T00:56:58.628Z,25.70
2018-09-01T00:59:26.135Z,24.70
2018-09-01T01:01:53.924Z,26.33
2018-09-01T01:04:21.547Z,25.23
2018-09-01T01:06:49.225Z,23.13
2018-09-01T01:09:16.987Z,23.57
2018-09-01T01:11:44.907Z,24.07
2018-09-01T01:14:12.507Z,24.93
2018-09-01T01:16:40.088Z,24.00
2018-09-01T01:19:07.892Z,23.67
2018-09-01T01:21:35.664Z,24.00
2018-09-01T01:24:03.356Z,23.97
2018-09-01T01:26:31.120Z,22.00
2018-09-01T01:28:58.701Z,25.63
2018-09-01T01:31:26.316Z,24.20
2018-09-01T01:33:54.652Z,25.47
2018-09-01T01:36:22.188Z,24.37
2018-09-01T01:38:49.819Z,25.33
2018-09-01T01:41:17.533Z,22.93
2018-09-01T01:43:45.591Z,25.90
2018-09-01T01:46:13.228Z,26.47
2018-09-01T01:48:41.126Z,22.37
2018-09-01T01:51:08.727Z,23.87
2018-09-01T01:53:36.388Z,24.73
2018-09-01T01:56:04.264Z,20.90
2018-09-01T01:58:31.965Z,22.83
2018-09-01T02:00:59.795Z,26.93
2018-09-01T02:03:27.731Z,25.37
2018-09-01T02:05:55.515Z,25.13
2018-09-01T02:08:23.067Z,25.47
2018-09-01T02:10:50.751Z,24.17
2018-09-01T02:13:18.369Z,25.33
2018-09-01T02:15:46.024Z,24.30
2018-09-01T02:18:13.729Z,25.87
2018-09-01T02:20:41.621Z,23.60
2018-09-01T02:23:09.339Z,24.23
2018-09-01T02:25:37.104Z,24.80
2018-09-01T02:28:04.736Z,22.93
2018-09-01T02:30:33.263Z,23.57
2018-09-01T02:33:00.925Z,23.90
2018-09-01T02:35:32.840Z,21.83
2018-09-01T02:38:00.503Z,22.10
2018-09-01T02:40:28.252Z,25.33
2018-09-01T02:42:56.020Z,25.10
2018-09-01T02:45:23.580Z,23.77
2018-09-01T02:47:51.143Z,24.17
2018-09-01T02:50:18.850Z,22.80
2018-09-01T02:52:46.475Z,23.10
2018-09-01T02:55:14.140Z,20.50
2018-09-01T02:57:41.935Z,22.07
2018-09-01T03:00:15.212Z,22.40
2018-09-01T03:02:42.810Z,23.20
2018-09-01T03:05:10.972Z,24.50
2018-09-01T03:07:38.834Z,21.90
2018-09-01T03:10:06.743Z,21.57
2018-09-01T03:12:34.347Z,19.83
2018-09-01T03:15:02.000Z,24.10
2018-09-01T03:17:29.732Z,21.10
2018-09-01T03:19:57.344Z,21.00
2018-09-01T03:22:25.020Z,19.50
2018-09-01T03:24:52.669Z,19.47
2018-09-01T03:27:20.898Z,18.20
2018-09-01T03:29:48.531Z,20.37
2018-09-01T03:32:17.069Z,18.53
2018-09-01T03:34:44.689Z,25.73
2018-09-01T03:37:12.381Z,21.67
2018-09-01T03:39:40.561Z,18.70
2018-09-01T03:42:08.384Z,19.90
2018-09-01T03:44:36.028Z,21.23
2018-09-01T03:47:03.851Z,19.73
2018-09-01T03:49:31.650Z,20.93
2018-09-01T03:51:59.261Z,20.60
2018-09-01T03:54:26.952Z,20.70
2018-09-01T03:56:54.747Z,17.87
2018-09-01T03:59:22.780Z,18.37
2018-09-01T04:01:50.449Z,17.90
2018-09-01T04:04:18.125Z,16.43
2018-09-01T04:06:45.755Z,17.43
2018-09-01T04:09:13.289Z,18.73
2018-09-01T04:11:40.891Z,16.47
2018-09-01T04:14:08.640Z,17.33
2018-09-01T04:16:36.344Z,18.13
2018-09-01T04:19:10.632Z,18.07
2018-09-01T04:21:38.308Z,20.77
2018-09-01T04:24:05.699Z,17.13
2018-09-01T04:26:33.427Z,18.37
2018-09-01T04:29:01.145Z,18.00
2018-09-01T04:31:28.859Z,18.07
2018-09-01T04:33:56.521Z,18.80
2018-09-01T04:36:24.335Z,20.87
2018-09-01T04:38:52.076Z,19.57
2018-09-01T04:41:19.879Z,18.93
2018-09-01T04:43:47.590Z,17.53
2018-09-01T04:46:15.219Z,19.97
2018-09-01T04:48:43.096Z,23.20
2018-09-01T04:51:10.656Z,18.70
2018-09-01T04:53:38.491Z,18.27
2018-09-01T04:56:06.312Z,18.10
2018-09-01T04:58:33.951Z,17.20
2018-09-01T05:01:01.741Z,19.93
2018-09-01T05:03:29.271Z,17.67
2018-09-01T05:05:57.548Z,17.37
2018-09-01T05:08:25.296Z,18.20
2018-09-01T05:10:52.989Z,17.80
2018-09-01T05:13:20.679Z,17.13
2018-09-01T05:15:49.031Z,16.30
2018-09-01T05:18:16.756Z,16.17
2018-09-01T05:20:44.341Z,19.40
2018-09-01T05:23:11.919Z,18.57
2018-09-01T05:25:41.119Z,16.57
2018-09-01T05:28:09.324Z,15.33
2018-09-01T05:30:36.967Z,16.30
2018-09-01T05:33:05.028Z,15.33
2018-09-01T05:35:32.968Z,16.60
2018-09-01T05:38:00.839Z,17.37
2018-09-01T05:40:28.392Z,16.90
2018-09-01T05:42:56.197Z,15.20
2018-09-01T05:45:23.788Z,15.63
2018-09-01T05:47:51.487Z,16.17
2018-09-01T05:50:19.195Z,16.43
2018-09-01T05:52:46.925Z,15.27
2018-09-01T05:55:14.636Z,16.93
2018-09-01T05:57:42.319Z,17.10
2018-09-01T06:00:10.147Z,18.43
2018-09-01T06:02:37.984Z,16.40
2018-09-01T06:05:06.627Z,16.50
2018-09-01T06:07:34.413Z,17.80
2018-09-01T06:10:02.012Z,16.63
2018-09-01T06:12:29.648Z,20.87
2018-09-01T06:14:57.267Z,18.67
2018-09-01T06:17:24.876Z,17.43
2018-09-01T06:19:52.435Z,17.43
2018-09-01T06:22:19.975Z,17.43
2018-09-01T06:24:47.781Z,17.27
2018-09-01T06:27:20.907Z,17.27
2018-09-01T06:29:49.187Z,17.80
2018-09-01T06:32:17.331Z,17.23
2018-09-01T06:34:45.119Z,21.77
2018-09-01T06:37:12.936Z,19.30
2018-09-01T06:39:41.132Z,17.63
2018-09-01T06:42:08.839Z,18.23
2018-09-01T06:44:36.657Z,17.27
2018-09-01T06:47:05.228Z,18.10
2018-09-01T06:49:32.927Z,17.20
2018-09-01T06:52:00.592Z,18.00
2018-09-01T06:54:28.214Z,18.70
2018-09-01T06:56:55.795Z,16.37
2018-09-01T06:59:23.439Z,18.43
2018-09-01T07:01:51.092Z,17.20
2018-09-01T07:04:18.964Z,16.77
2018-09-01T07:06:46.479Z,15.13
2018-09-01T07:09:14.015Z,16.20
2018-09-01T07:11:41.760Z,14.87
2018-09-01T07:14:09.379Z,15.00
2018-09-01T07:16:36.947Z,17.43
2018-09-01T07:19:04.638Z,13.40
2018-09-01T07:21:32.343Z,14.03
2018-09-01T07:24:00.031Z,13.50
2018-09-01T07:26:27.641Z,13.40
2018-09-01T07:28:55.347Z,13.20
2018-09-01T07:31:23.836Z,13.27
2018-09-01T07:33:51.223Z,16.03
2018-09-01T07:36:19.012Z,11.73
2018-09-01T07:38:47.272Z,11.37
2018-09-01T07:41:15.455Z,10.70
2018-09-01T07:43:43.039Z,11.37
2018-09-01T07:46:11.077Z,10.90
2018-09-01T07:48:38.680Z,11.80
2018-09-01T07:51:06.375Z,12.57
2018-09-01T07:53:35.175Z,10.80
2018-09-01T07:56:02.830Z,10.70
2018-09-01T07:58:31.099Z,9.73
2018-09-01T08:00:58.672Z,10.70
2018-09-01T08:03:26.420Z,11.00
2018-09-01T08:05:55.332Z,12.00
2018-09-01T08:08:22.963Z,11.40
2018-09-01T08:10:51.012Z,9.93
2018-09-01T08:13:19.080Z,9.50
2018-09-01T08:15:46.892Z,9.53
2018-09-01T08:18:14.483Z,12.60
2018-09-01T08:20:42.129Z,9.23
2018-09-01T08:23:09.871Z,10.33
2018-09-01T08:25:37.437Z,10.57
2018-09-01T08:28:05.347Z,8.57
2018-09-01T08:30:33.083Z,8.00
2018-09-01T08:33:00.978Z,9.03
2018-09-01T08:35:28.639Z,9.70
2018-09-01T08:37:56.251Z,7.77
2018-09-01T08:40:23.895Z,9.37
2018-09-01T08:42:51.732Z,8.33
2018-09-01T08:45:19.433Z,7.90
2018-09-01T08:47:47.059Z,6.93
2018-09-01T08:50:15.179Z,6.00
2018-09-01T08:52:42.901Z,9.00
2018-09-01T08:55:12.425Z,7.00
2018-09-01T08:57:40.443Z,8.03
2018-09-01T09:00:08.355Z,4.50
2018-09-01T09:02:36.171Z,4.40
2018-09-01T09:05:04.863Z,4.43
2018-09-01T09:07:32.838Z,6.43
2018-09-01T09:10:00.826Z,7.60
2018-09-01T09:12:28.540Z,7.87
2018-09-01T09:14:56.748Z,6.00
2018-09-01T09:17:26.149Z,10.20
2018-09-01T09:19:57.708Z,4.23
2018-09-01T09:22:26.111Z,4.77
2018-09-01T09:24:56.401Z,7.67
2018-09-01T09:27:27.697Z,5.03
2018-09-01T09:29:57.743Z,3.80
2018-09-01T09:32:27.887Z,4.57
2018-09-01T09:34:58.344Z,7.60
2018-09-01T09:37:28.918Z,5.20
2018-09-01T09:39:59.422Z,7.60
2018-09-01T09:42:29.608Z,4.40
2018-09-01T09:44:57.237Z,5.27
2018-09-01T09:47:24.812Z,5.70
2018-09-01T09:49:52.441Z,4.70
2018-09-01T09:52:20.919Z,6.40
2018-09-01T09:54:48.551Z,4.50
2018-09-01T09:57:17.120Z,5.07
2018-09-01T09:59:44.878Z,3.07
2018-09-01T10:02:12.624Z,5.93
2018-09-01T10:04:40.261Z,3.93
2018-09-01T10:07:07.960Z,2.67
2018-09-01T10:09:36.388Z,3.43
2018-09-01T10:12:03.980Z,3.90
2018-09-01T10:14:31.743Z,3.90
2018-09-01T10:16:59.333Z,5.07
2018-09-01T10:19:27.652Z,3.33
2018-09-01T10:21:55.283Z,3.33
2018-09-01T10:24:22.793Z,7.27
2018-09-01T10:26:50.546Z,6.60
2018-09-01T10:29:18.215Z,4.93
2018-09-01T10:31:45.968Z,4.03
2018-09-01T10:34:14.175Z,5.00
2018-09-01T10:36:41.940Z,3.33
2018-09-01T10:39:10.187Z,2.60
2018-09-01T10:41:37.809Z,4.63
2018-09-01T10:44:06.346Z,3.53
2018-09-01T10:46:35.150Z,4.40
2018-09-01T10:49:02.975Z,6.27
2018-09-01T10:51:30.695Z,3.47
2018-09-01T10:53:58.923Z,5.27
2018-09-01T10:56:27.372Z,3.53
2018-09-01T10:58:55.270Z,3.40
2018-09-01T11:01:22.849Z,4.17
2018-09-01T11:03:50.668Z,3.20
2018-09-01T11:06:18.707Z,4.10
2018-09-01T11:08:46.456Z,4.47
2018-09-01T11:11:14.132Z,3.63
2018-09-01T11:13:42.044Z,6.90
2018-09-01T11:16:09.758Z,3.13
2018-09-01T11:18:37.491Z,3.73
2018-09-01T11:21:05.418Z,5.30
2018-09-01T11:23:32.971Z,4.10
2018-09-01T11:26:00.684Z,7.53
2018-09-01T11:28:28.384Z,3.20
2018-09-01T11:30:56.606Z,3.60
2018-09-01T11:33:24.279Z,3.77
2018-09-01T11:35:52.707Z,6.20
2018-09-01T11:38:20.411Z,5.70
2018-09-01T11:40:48.172Z,4.33
2018-09-01T11:43:15.853Z,6.30
2018-09-01T11:45:43.615Z,5.73
2018-09-01T11:48:11.367Z,4.40
2018-09-01T11:50:39.019Z,5.93
2018-09-01T11:53:08.124Z,5.03
2018-09-01T11:55:36.632Z,3.10
2018-09-01T11:58:04.332Z,7.00
2018-09-01T12:00:31.995Z,5.50
2018-09-01T12:02:59.676Z,3.20
2018-09-01T12:05:27.298Z,5.13
2018-09-01T12:07:55.274Z,4.10
2018-09-01T12:10:23.059Z,5.33
2018-09-01T12:12:50.772Z,4.80
2018-09-01T12:15:18.507Z,5.57
2018-09-01T12:17:46.352Z,5.10
2018-09-01T12:20:14.039Z,3.33
2018-09-01T12:22:41.609Z,3.20
2018-09-01T12:25:09.355Z,4.10
2018-09-01T12:27:37.150Z,6.50
2018-09-01T12:30:05.704Z,3.80
2018-09-01T12:32:33.263Z,7.23
2018-09-01T12:35:00.860Z,3.10
2018-09-01T12:37:28.655Z,5.40
2018-09-01T12:39:56.279Z,3.67
2018-09-01T12:42:23.899Z,3.87
2018-09-01T12:44:51.788Z,6.20
2018-09-01T12:47:19.325Z,2.70
2018-09-01T12:49:47.088Z,3.07
2018-09-01T12:52:14.675Z,4.10
2018-09-01T12:54:43.348Z,5.70
2018-09-01T12:57:11.035Z,5.20
2018-09-01T12:59:38.798Z,4.30
2018-09-01T13:02:06.567Z,4.43
2018-09-01T13:04:34.240Z,3.30
2018-09-01T13:07:02.183Z,3.23
2018-09-01T13:09:29.777Z,5.70
2018-09-01T13:11:57.368Z,3.03
2018-09-01T13:14:25.142Z,4.10
2018-09-01T13:16:52.979Z,6.60
2018-09-01T13:19:21.364Z,5.47
2018-09-01T13:21:48.999Z,5.30
2018-09-01T13:24:16.580Z,5.33
2018-09-01T13:26:44.163Z,4.30
2018-09-01T13:29:11.935Z,6.17
2018-09-01T13:31:39.704Z,3.80
2018-09-01T13:34:07.416Z,4.20
2018-09-01T13:36:35.620Z,3.13
2018-09-01T13:39:04.294Z,4.20
2018-09-01T13:41:32.144Z,3.00
2018-09-01T13:44:00.317Z,6.47
2018-09-01T13:46:28.140Z,5.03
2018-09-01T13:48:55.846Z,7.00
2018-09-01T13:51:23.399Z,4.20
2018-09-01T13:53:51.505Z,3.50
2018-09-01T13:56:19.206Z,3.93
2018-09-01T13:58:46.826Z,3.60
2018-09-01T14:01:14.601Z,3.70
2018-09-01T14:03:42.242Z,5.03
2018-09-01T14:06:10.056Z,4.10
2018-09-01T14:08:39.133Z,4.30
2018-09-01T14:11:06.792Z,5.10
2018-09-01T14:13:34.541Z,4.90
2018-09-01T14:16:02.205Z,2.67
2018-09-01T14:18:29.916Z,6.13
2018-09-01T14:20:57.680Z,4.70
2018-09-01T14:23:25.336Z,5.70
2018-09-01T14:25:52.988Z,3.13
2018-09-01T14:28:21.219Z,6.60
2018-09-01T14:30:48.799Z,3.73
2018-09-01T14:33:16.619Z,3.13
2018-09-01T14:35:44.348Z,3.40
2018-09-01T14:38:11.963Z,5.27
2018-09-01T14:40:39.585Z,3.57
2018-09-01T14:43:07.473Z,3.10
2018-09-01T14:45:35.335Z,3.90
2018-09-01T14:48:03.107Z,6.03
2018-09-01T14:50:31.515Z,3.13
2018-09-01T14:52:59.276Z,5.47
2018-09-01T14:55:27.007Z,13.43
2018-09-01T14:57:54.891Z,2.93
2018-09-01T15:00:22.660Z,7.13
2018-09-01T15:02:50.595Z,4.93
2018-09-01T15:05:18.449Z,3.60
2018-09-01T15:07:46.365Z,5.47
2018-09-01T15:10:14.130Z,4.47
2018-09-01T15:12:41.816Z,3.10
2018-09-01T15:15:09.530Z,3.50
2018-09-01T15:17:37.784Z,2.90
2018-09-01T15:20:06.059Z,4.00
2018-09-01T15:22:33.716Z,5.57
2018-09-01T15:25:01.385Z,3.70
2018-09-01T15:27:29.705Z,4.10
2018-09-01T15:29:57.332Z,4.43
2018-09-01T15:32:24.981Z,3.97
2018-09-01T15:34:52.566Z,6.10
2018-09-01T15:37:20.842Z,5.07
2018-09-01T15:39:49.875Z,2.90
2018-09-01T15:42:17.653Z,2.90
2018-09-01T15:44:45.439Z,3.50
2018-09-01T15:47:13.167Z,4.10
2018-09-01T15:49:41.010Z,2.43
2018-09-01T15:52:08.960Z,5.20
2018-09-01T15:54:36.511Z,3.53
2018-09-01T15:57:04.513Z,3.77
2018-09-01T15:59:32.316Z,6.20
2018-09-01T16:02:00.158Z,4.30
2018-09-01T16:04:27.840Z,4.30
2018-09-01T16:06:56.098Z,4.33
2018-09-01T16:09:24.008Z,6.03
2018-09-01T16:11:51.593Z,3.90
2018-09-01T16:14:19.200Z,2.53
2018-09-01T16:16:46.889Z,5.00
2018-09-01T16:19:14.648Z,2.93
2018-09-01T16:21:42.323Z,3.63
2018-09-01T16:24:10.359Z,4.00
2018-09-01T16:26:37.985Z,2.83
2018-09-01T16:29:05.676Z,5.33
2018-09-01T16:31:33.352Z,8.90
2018-09-01T16:34:01.067Z,5.60
2018-09-01T16:36:28.812Z,4.27
2018-09-01T16:38:56.645Z,6.57
2018-09-01T16:41:24.421Z,4.60
2018-09-01T16:43:52.464Z,2.70
2018-09-01T16:46:20.231Z,5.10
2018-09-01T16:48:47.800Z,3.13
2018-09-01T16:51:15.546Z,4.80
2018-09-01T16:53:43.349Z,4.80
2018-09-01T16:56:11.088Z,4.50
2018-09-01T16:58:39.517Z,5.20
2018-09-01T17:01:07.091Z,6.73
2018-09-01T17:03:34.899Z,4.57
2018-09-01T17:06:02.527Z,3.40
2018-09-01T17:08:30.148Z,5.03
2018-09-01T17:10:57.912Z,3.53
2018-09-01T17:13:25.653Z,5.90
2018-09-01T17:15:53.379Z,4.00
2018-09-01T17:18:21.031Z,4.40
2018-09-01T17:20:49.448Z,4.60
2018-09-01T17:23:17.163Z,5.63
2018-09-01T17:25:45.827Z,7.33
2018-09-01T17:28:14.821Z,3.67
2018-09-01T17:30:42.703Z,6.23
2018-09-01T17:33:10.567Z,5.03
2018-09-01T17:35:38.161Z,6.07
2018-09-01T17:38:06.070Z,3.07
2018-09-01T17:40:33.696Z,4.07
2018-09-01T17:43:01.315Z,6.33
2018-09-01T17:45:28.937Z,4.87
2018-09-01T17:47:56.596Z,6.17
2018-09-01T17:50:24.183Z,5.23
2018-09-01T17:52:51.948Z,5.00
2018-09-01T17:55:20.204Z,4.77
2018-09-01T17:57:47.856Z,8.33
2018-09-01T18:00:15.539Z,6.93
2018-09-01T18:02:43.312Z,4.20
2018-09-01T18:05:11.139Z,9.27
2018-09-01T18:07:38.846Z,5.00
2018-09-01T18:10:06.576Z,7.50
2018-09-01T18:12:34.642Z,5.57
2018-09-01T18:15:02.269Z,4.43
2018-09-01T18:17:29.965Z,7.30
2018-09-01T18:19:58.265Z,4.30
2018-09-01T18:22:25.966Z,4.43
2018-09-01T18:24:53.913Z,4.40
2018-09-01T18:27:21.944Z,4.37
2018-09-01T18:29:49.686Z,8.13
2018-09-01T18:32:17.527Z,6.87
2018-09-01T18:34:45.126Z,6.30
2018-09-01T18:37:13.590Z,5.07
2018-09-01T18:39:41.866Z,4.37
2018-09-01T18:42:10.292Z,4.97
2018-09-01T18:44:38.060Z,5.70
2018-09-01T18:47:05.837Z,4.60
2018-09-01T18:49:33.601Z,7.73
2018-09-01T18:52:03.155Z,4.63
2018-09-01T18:54:32.492Z,5.20
2018-09-01T18:57:00.135Z,7.60
2018-09-01T18:59:28.412Z,5.73
2018-09-01T19:01:56.548Z,8.20
2018-09-01T19:04:25.661Z,6.13
2018-09-01T19:06:53.427Z,7.90
2018-09-01T19:09:21.091Z,7.27
2018-09-01T19:11:48.871Z,5.47
2018-09-01T19:14:16.813Z,6.97
2018-09-01T19:16:44.481Z,5.77
2018-09-01T19:19:12.320Z,4.77
2018-09-01T19:21:39.964Z,4.33
2018-09-01T19:24:08.948Z,4.63
2018-09-01T19:26:36.729Z,5.03
2018-09-01T19:29:04.713Z,9.13
2018-09-01T19:31:32.356Z,6.03
2018-09-01T19:34:00.898Z,5.77
2018-09-01T19:36:28.808Z,6.73
2018-09-01T19:38:57.638Z,5.03
2018-09-01T19:41:25.747Z,4.33
2018-09-01T19:43:54.347Z,7.63
2018-09-01T19:46:22.869Z,6.97
2018-09-01T19:48:50.817Z,6.43
2018-09-01T19:51:18.488Z,7.60
2018-09-01T19:53:46.220Z,5.10
2018-09-01T19:56:15.046Z,6.23
2018-09-01T19:58:44.412Z,5.93
2018-09-01T20:01:12.341Z,6.70
2018-09-01T20:03:40.066Z,6.50
2018-09-01T20:06:07.856Z,7.90
2018-09-01T20:08:36.074Z,5.57
2018-09-01T20:11:03.876Z,5.60
2018-09-01T20:13:31.640Z,4.90
2018-09-01T20:15:59.432Z,5.90
2018-09-01T20:18:27.975Z,6.70
2018-09-01T20:20:55.909Z,5.07
2018-09-01T20:23:23.765Z,7.23
2018-09-01T20:25:51.475Z,8.73
2018-09-01T20:28:19.913Z,5.30
2018-09-01T20:30:47.629Z,8.63
2018-09-01T20:33:15.510Z,5.27
2018-09-01T20:35:48.740Z,4.70
2018-09-01T20:38:16.541Z,6.90
2018-09-01T20:40:44.314Z,4.97
2018-09-01T20:43:11.983Z,4.67
2018-09-01T20:45:40.068Z,7.83
2018-09-01T20:48:08.365Z,6.70
2018-09-01T20:50:37.535Z,7.60
2018-09-01T20:53:06.127Z,10.90
2018-09-01T20:55:34.043Z,5.97
2018-09-01T20:58:01.974Z,6.00
2018-09-01T21:00:29.795Z,8.60
2018-09-01T21:02:57.812Z,6.10
2018-09-01T21:05:25.505Z,6.43
2018-09-01T21:07:53.297Z,4.80
2018-09-01T21:10:21.334Z,5.23
2018-09-01T21:12:49.051Z,4.80
2018-09-01T21:15:16.828Z,5.80
2018-09-01T21:17:44.412Z,5.60
2018-09-01T21:20:12.033Z,10.40
2018-09-01T21:22:40.792Z,4.93
2018-09-01T21:25:09.067Z,5.50
2018-09-01T21:27:36.651Z,6.03
2018-09-01T21:30:05.188Z,5.13
2018-09-01T21:32:33.028Z,6.67
2018-09-01T21:35:01.292Z,7.87
2018-09-01T21:37:29.222Z,6.33
2018-09-01T21:39:57.067Z,8.70
2018-09-01T21:42:25.511Z,6.23
2018-09-01T21:44:53.236Z,6.50
2018-09-01T21:47:20.994Z,5.50
2018-09-01T21:49:49.059Z,8.80
2018-09-01T21:52:16.727Z,7.50
2018-09-01T21:54:44.544Z,6.07
2018-09-01T21:57:12.255Z,7.10
2018-09-01T21:59:40.117Z,8.07
2018-09-01T22:02:13.636Z,9.00
2018-09-01T22:04:46.992Z,9.00
2018-09-01T22:07:14.835Z,9.40
2018-09-01T22:09:42.492Z,7.17
2018-09-01T22:12:10.227Z,12.73
2018-09-01T22:14:37.802Z,6.70
2018-09-01T22:17:05.520Z,6.93
2018-09-01T22:19:33.383Z,9.90
2018-09-01T22:22:01.350Z,6.57
2018-09-01T22:24:28.974Z,7.67
2018-09-01T22:26:56.771Z,7.20
2018-09-01T22:29:24.391Z,6.73
2018-09-01T22:31:52.102Z,8.13
2018-09-01T22:34:20.033Z,8.37
2018-09-01T22:36:47.785Z,7.07
2018-09-01T22:39:15.417Z,8.40
2018-09-01T22:41:43.047Z,9.37
2018-09-01T22:44:10.826Z,12.97
2018-09-01T22:46:38.475Z,8.37
2018-09-01T22:49:06.071Z,12.60
2018-09-01T22:51:33.658Z,11.10
2018-09-01T22:54:01.265Z,11.23
2018-09-01T22:56:28.811Z,11.87
2018-09-01T22:58:56.667Z,14.90
2018-09-01T23:01:24.270Z,11.30
2018-09-01T23:03:52.021Z,9.07
2018-09-01T23:06:19.603Z,9.07
2018-09-01T23:08:47.316Z,8.53
2018-09-01T23:11:15.023Z,8.47
2018-09-01T23:13:42.744Z,9.30
2018-09-01T23:16:10.485Z,9.97
2018-09-01T23:18:38.298Z,10.27
2018-09-01T23:21:05.931Z,9.10
2018-09-01T23:23:34.147Z,11.20
2018-09-01T23:26:01.835Z,9.77
2018-09-01T23:28:29.427Z,12.10
2018-09-01T23:30:57.179Z,12.47
2018-09-01T23:33:25.294Z,13.13
2018-09-01T23:35:53.103Z,13.63
2018-09-01T23:38:20.764Z,10.20
2018-09-01T23:40:48.387Z,10.70
2018-09-01T23:43:16.027Z,11.27
2018-09-01T23:45:43.741Z,10.67
2018-09-01T23:48:11.616Z,12.10
2018-09-01T23:50:39.188Z,9.40
2018-09-01T23:53:06.849Z,10.20
2018-09-01T23:55:34.484Z,13.07
2018-09-01T23:58:02.155Z,12.10
